Terminal Aerodrome Forecast
Issued by NWS Central Illinois

Home | Current Version | Previous Version | Text Only | Print | Product List | Glossary On
Versions: 1 2 3 4 5 6 7 8 9 10 11 12 13 14 15 16 17 18 19 20 21 22 23
000
FTUS43 KILX 092154 AAW
TAFPIA
TAF AMD
KPIA 092154Z 0922/1018 03008KT P6SM SCT035
     FM092300 05008KT P6SM SKC
     FM100500 VRB03KT P6SM BKN250
     FM101200 VRB05KT P6SM BKN090=

USA.gov is the U.S. government's official web portal to all federal, state and local government web resources and services.